Time;durP1;ratioP1;P1;durP2;ratioP2;P2;SDS_P1;SDS_P2;PMS_P1;PMS_P2;Temp;Humidity;BMP_temperature;BMP_pressure;BME280_temperature;BME280_humidity;BME280_pressure;Samples;Min_cycle;Max_cycle;Signal;HPM_P1;HPM_P2
2022/01/02 00:03:04;;;;;;;3.80;1.70;;;11.80;99.90;;;;;;20686600;28;20068;-46
2022/01/02 00:13:07;;;;;;;6.35;1.80;;;11.70;99.90;;;;;;20673614;28;20042;-46
2022/01/02 00:23:09;;;;;;;5.43;2.33;;;11.70;99.90;;;;;;20665907;28;20042;-46
2022/01/02 00:33:10;;;;;;;9.93;2.47;;;11.60;99.90;;;;;;20676420;28;20650;-46
2022/01/02 00:43:19;;;;;;;7.85;2.92;;;11.50;99.90;;;;;;20684050;28;20053;-46
2022/01/02 00:53:25;;;;;;;6.65;2.78;;;11.40;99.90;;;;;;20687733;28;20041;-46
2022/01/02 01:03:33;;;;;;;5.78;3.03;;;11.40;99.90;;;;;;20688196;28;20702;-46
2022/01/02 01:13:34;;;;;;;6.53;2.25;;;11.40;99.90;;;;;;20679426;28;20057;-46
2022/01/02 01:23:37;;;;;;;3.70;1.90;;;11.40;99.90;;;;;;20688108;28;20546;-46
2022/01/02 01:33:38;;;;;;;6.15;2.05;;;11.40;99.90;;;;;;20673847;28;20030;-46
2022/01/02 01:43:53;;;;;;;9.85;2.40;;;11.50;99.90;;;;;;20686871;28;20053;-46
2022/01/02 01:53:54;;;;;;;4.65;2.20;;;11.60;99.90;;;;;;20682357;28;20043;-45
2022/01/02 02:03:56;;;;;;;9.60;2.10;;;11.60;99.90;;;;;;20688765;28;21947;-45
2022/01/02 02:13:59;;;;;;;5.53;2.03;;;11.60;99.90;;;;;;20695083;28;20041;-46
2022/01/02 02:24:00;;;;;;;5.43;1.63;;;11.70;99.90;;;;;;20691724;28;20339;-46
2022/01/02 02:34:01;;;;;;;5.30;1.98;;;11.90;99.90;;;;;;20692487;28;20414;-46
2022/01/02 02:44:16;;;;;;;10.40;2.15;;;11.90;99.90;;;;;;20705648;28;20042;-46
2022/01/02 02:54:23;;;;;;;4.95;1.52;;;12.00;99.90;;;;;;20687356;28;20041;-47
2022/01/02 03:04:25;;;;;;;7.32;1.55;;;12.00;99.90;;;;;;20689408;28;20049;-46
2022/01/02 03:14:26;;;;;;;3.20;1.30;;;12.10;99.90;;;;;;20673225;28;20624;-46
2022/01/02 03:24:27;;;;;;;3.72;0.98;;;12.20;99.90;;;;;;20684145;28;20069;-46
2022/01/02 03:34:28;;;;;;;5.22;1.55;;;12.40;99.90;;;;;;21148633;22;20082;-44
2022/01/02 03:44:29;;;;;;;3.83;1.45;;;12.40;99.90;;;;;;20858093;28;20052;-45
2022/01/02 03:54:31;;;;;;;6.10;1.50;;;12.30;99.90;;;;;;20855259;28;20496;-45
2022/01/02 04:04:32;;;;;;;4.97;1.40;;;12.20;99.90;;;;;;20860708;28;20054;-45
2022/01/02 04:14:33;;;;;;;6.55;1.40;;;12.20;99.90;;;;;;20858515;28;20397;-45
2022/01/02 04:24:34;;;;;;;3.47;1.17;;;12.40;99.90;;;;;;20855907;28;20048;-45
2022/01/02 04:34:36;;;;;;;2.72;1.05;;;12.50;99.90;;;;;;20794290;28;20046;-45
2022/01/02 04:44:37;;;;;;;5.90;1.33;;;12.60;99.90;;;;;;20757731;28;20050;-45
2022/01/02 04:54:38;;;;;;;4.43;1.45;;;12.60;99.90;;;;;;20769707;28;20037;-46
2022/01/02 05:04:39;;;;;;;5.53;1.73;;;12.60;99.90;;;;;;20765927;28;20049;-45
2022/01/02 05:14:40;;;;;;;3.92;1.20;;;12.40;99.90;;;;;;20780716;28;20044;-45
2022/01/02 05:24:41;;;;;;;4.57;1.42;;;12.40;99.90;;;;;;20767197;28;20049;-45
2022/01/02 05:34:42;;;;;;;7.30;1.30;;;12.30;99.90;;;;;;20765599;28;20037;-45
2022/01/02 05:44:43;;;;;;;4.18;1.13;;;12.30;99.90;;;;;;20752098;28;20049;-45
2022/01/02 05:54:45;;;;;;;3.97;1.60;;;12.30;99.90;;;;;;20784746;28;20037;-45
2022/01/02 06:04:46;;;;;;;11.32;1.60;;;12.20;99.90;;;;;;20764771;28;20053;-45
2022/01/02 06:14:47;;;;;;;6.13;1.30;;;12.20;99.90;;;;;;20768349;28;20579;-45
2022/01/02 06:24:48;;;;;;;3.63;1.15;;;12.10;99.90;;;;;;20764986;28;20919;-45
2022/01/02 06:34:49;;;;;;;4.47;1.45;;;12.10;99.90;;;;;;20771240;28;20041;-46
2022/01/02 06:44:50;;;;;;;4.32;1.80;;;12.10;99.90;;;;;;20789046;28;20048;-46
2022/01/02 06:54:53;;;;;;;3.67;1.20;;;12.10;99.90;;;;;;20795753;28;20540;-46
2022/01/02 07:04:54;;;;;;;2.13;0.77;;;12.20;99.90;;;;;;20791319;28;20073;-45
2022/01/02 07:14:55;;;;;;;2.95;1.40;;;12.20;99.90;;;;;;20786313;28;20037;-45
2022/01/02 07:24:56;;;;;;;3.45;1.08;;;12.20;99.90;;;;;;20776035;28;20543;-45
2022/01/02 07:34:58;;;;;;;5.00;1.30;;;12.40;99.90;;;;;;20786777;28;20041;-46
2022/01/02 07:44:59;;;;;;;5.88;2.15;;;12.60;99.90;;;;;;20771529;28;20466;-46
2022/01/02 07:55:00;;;;;;;5.47;1.67;;;12.50;99.90;;;;;;20760498;28;20037;-45
2022/01/02 08:05:01;;;;;;;2.97;1.00;;;12.50;99.90;;;;;;20789759;28;21395;-46
2022/01/02 08:15:02;;;;;;;2.63;1.17;;;12.50;99.90;;;;;;20797407;28;20037;-45
2022/01/02 08:25:06;;;;;;;2.97;1.10;;;12.40;99.90;;;;;;20778054;28;20054;-46
2022/01/02 08:35:07;;;;;;;3.30;0.98;;;12.40;99.90;;;;;;20761854;28;20049;-46
2022/01/02 08:45:09;;;;;;;3.75;1.50;;;12.40;99.90;;;;;;20779702;28;20151;-45
2022/01/02 08:55:12;;;;;;;4.15;1.70;;;12.40;99.90;;;;;;20724651;28;20183;-45
2022/01/02 09:05:13;;;;;;;3.50;1.20;;;12.30;99.90;;;;;;20774346;28;20050;-45
2022/01/02 09:15:14;;;;;;;6.25;1.85;;;12.40;99.90;;;;;;20751567;28;20045;-45
2022/01/02 09:25:15;;;;;;;3.67;1.92;;;12.30;99.90;;;;;;20761918;28;20523;-46
2022/01/02 09:35:17;;;;;;;4.40;1.67;;;12.50;99.90;;;;;;20731815;28;21457;-46
2022/01/02 09:45:19;;;;;;;7.00;2.05;;;12.40;99.90;;;;;;20735731;28;20052;-46
2022/01/02 09:55:20;;;;;;;3.60;1.38;;;12.40;99.90;;;;;;20764317;28;20520;-46
2022/01/02 10:05:51;;;;;;;3.92;1.90;;;12.50;99.90;;;;;;20784638;28;20496;-46
2022/01/02 10:15:52;;;;;;;6.15;2.25;;;12.40;99.90;;;;;;20782514;28;20038;-46
2022/01/02 10:25:56;;;;;;;5.10;2.05;;;12.70;99.90;;;;;;20785739;28;20041;-46
2022/01/02 10:36:02;;;;;;;4.78;2.03;;;12.70;99.90;;;;;;20808485;28;20488;-46
2022/01/02 10:46:09;;;;;;;7.78;1.70;;;12.60;99.90;;;;;;20803145;28;20226;-46
2022/01/02 10:56:10;;;;;;;7.63;3.13;;;12.50;99.90;;;;;;20775275;28;20038;-46
2022/01/02 11:06:14;;;;;;;3.47;1.40;;;12.60;99.90;;;;;;20742910;28;20673;-45
2022/01/02 11:16:16;;;;;;;6.30;1.67;;;12.70;99.90;;;;;;20787649;28;20504;-45
2022/01/02 11:26:34;;;;;;;7.70;1.83;;;12.80;99.90;;;;;;20788839;28;20042;-46
2022/01/02 11:36:38;;;;;;;;;;;13.10;99.90;;;;;;20818339;28;20059;-46
2022/01/02 11:46:51;;;;;;;5.30;1.60;;;13.20;99.90;;;;;;20801809;28;19925;-46
2022/01/02 11:56:53;;;;;;;4.38;0.88;;;12.90;99.90;;;;;;20829766;28;20048;-47
2022/01/02 12:06:54;;;;;;;4.10;1.30;;;12.80;99.90;;;;;;20824144;28;20125;-45
2022/01/02 12:17:08;;;;;;;15.18;1.25;;;12.80;99.90;;;;;;20845914;28;20045;-45
2022/01/02 12:27:14;;;;;;;4.85;0.73;;;12.80;99.90;;;;;;20800432;28;20313;-46
2022/01/02 12:37:15;;;;;;;6.18;0.80;;;12.80;99.90;;;;;;20820519;28;20049;-46
2022/01/02 12:47:17;;;;;;;7.15;2.65;;;12.80;99.90;;;;;;20778859;28;20041;-45
2022/01/02 12:57:18;;;;;;;3.08;0.60;;;12.80;99.90;;;;;;20791072;28;20045;-45
2022/01/02 13:07:28;;;;;;;1.98;0.60;;;12.70;99.90;;;;;;20790267;28;20053;-45
2022/01/02 13:17:35;;;;;;;1.70;0.60;;;12.90;99.90;;;;;;20799459;28;20040;-45
2022/01/02 13:27:51;;;;;;;3.63;1.10;;;13.00;99.90;;;;;;20787411;28;20048;-46
2022/01/02 13:38:01;;;;;;;5.15;0.90;;;12.80;99.90;;;;;;20793851;28;21660;-45
2022/01/02 13:48:16;;;;;;;6.53;1.20;;;12.50;99.90;;;;;;20785073;28;20061;-45
2022/01/02 13:58:24;;;;;;;3.50;0.75;;;12.40;99.90;;;;;;20789905;28;20056;-45
2022/01/02 14:08:25;;;;;;;4.33;0.90;;;12.30;99.90;;;;;;20787243;28;20041;-45
2022/01/02 14:18:30;;;;;;;1.83;0.80;;;12.20;99.90;;;;;;20796391;28;20128;-45
2022/01/02 14:28:31;;;;;;;3.85;0.65;;;12.10;99.90;;;;;;20788610;28;20429;-45
2022/01/02 14:38:33;;;;;;;11.18;1.15;;;11.90;99.90;;;;;;20773432;28;20038;-45
2022/01/02 14:48:34;;;;;;;7.07;0.70;;;11.70;99.90;;;;;;20777931;28;20052;-45
2022/01/02 14:58:36;;;;;;;4.15;0.90;;;11.50;99.90;;;;;;20793714;28;20037;-45
2022/01/02 15:08:39;;;;;;;2.40;0.90;;;11.50;99.90;;;;;;20806973;28;20053;-45
2022/01/02 15:18:41;;;;;;;3.13;1.00;;;11.40;99.90;;;;;;20806511;28;20393;-45
2022/01/02 15:28:42;;;;;;;3.65;0.57;;;11.50;99.90;;;;;;20800116;28;20053;-45
2022/01/02 15:38:43;;;;;;;6.10;1.77;;;11.50;99.90;;;;;;20823422;28;20038;-46
2022/01/02 15:48:44;;;;;;;6.78;0.85;;;11.50;99.90;;;;;;20827806;28;20129;-46
2022/01/02 15:58:45;;;;;;;9.50;0.98;;;11.50;99.90;;;;;;20817358;28;20040;-45
2022/01/02 16:08:49;;;;;;;3.10;0.60;;;11.50;99.90;;;;;;20837129;28;20401;-45
2022/01/02 16:18:50;;;;;;;5.63;1.20;;;11.50;99.90;;;;;;20812435;28;20045;-45
2022/01/02 16:28:51;;;;;;;6.53;1.00;;;11.40;99.90;;;;;;20815080;28;20041;-46
2022/01/02 16:38:53;;;;;;;1.33;0.30;;;11.50;99.90;;;;;;20814865;28;20041;-45
2022/01/02 16:48:54;;;;;;;3.25;0.65;;;11.60;99.90;;;;;;20809044;28;20065;-45
2022/01/02 16:58:56;;;;;;;5.60;1.10;;;11.70;99.90;;;;;;20810256;28;20492;-45
2022/01/02 17:08:57;;;;;;;4.40;1.23;;;11.70;99.90;;;;;;20819421;28;20042;-46
2022/01/02 17:18:58;;;;;;;11.88;0.85;;;11.80;99.90;;;;;;20826785;28;20599;-46
2022/01/02 17:29:00;;;;;;;4.75;1.00;;;11.80;99.90;;;;;;20818692;28;20053;-46
2022/01/02 17:39:01;;;;;;;10.18;3.80;;;11.70;99.90;;;;;;20823866;28;20438;-45
2022/01/02 17:49:02;;;;;;;2.42;0.80;;;11.70;99.90;;;;;;20812124;28;20056;-45
2022/01/02 17:59:05;;;;;;;5.25;0.50;;;11.60;99.90;;;;;;20795396;28;20747;-45
2022/01/02 18:09:15;;;;;;;4.07;0.70;;;11.60;99.90;;;;;;20825886;28;20640;-45
2022/01/02 18:19:17;;;;;;;8.35;1.50;;;11.50;99.90;;;;;;20801136;28;20130;-45
2022/01/02 18:29:21;;;;;;;3.03;0.80;;;11.50;99.90;;;;;;20795356;28;20382;-45
2022/01/02 18:39:22;;;;;;;2.40;0.95;;;11.50;99.90;;;;;;20794312;28;20930;-45
2022/01/02 18:49:27;;;;;;;2.63;0.30;;;11.50;99.90;;;;;;20787853;28;20074;-45
2022/01/02 18:59:28;;;;;;;4.55;1.20;;;11.20;99.90;;;;;;20777173;28;20040;-45
2022/01/02 19:09:29;;;;;;;4.97;1.00;;;10.70;99.90;;;;;;20788049;28;20053;-46
2022/01/02 19:19:30;;;;;;;3.63;0.73;;;10.50;99.90;;;;;;20782177;28;20041;-47
2022/01/02 19:29:33;;;;;;;4.80;0.82;;;10.40;99.90;;;;;;20782346;28;20594;-47
2022/01/02 19:39:34;;;;;;;3.28;0.80;;;10.30;99.90;;;;;;20777484;28;20045;-46
2022/01/02 19:49:35;;;;;;;1.58;0.70;;;10.20;99.90;;;;;;20771185;28;20060;-45
2022/01/02 19:59:37;;;;;;;3.72;0.70;;;10.30;99.90;;;;;;20770659;28;20042;-45
2022/01/02 20:09:38;;;;;;;1.85;0.65;;;10.50;99.90;;;;;;20757067;28;20060;-44
2022/01/02 20:19:39;;;;;;;4.88;0.75;;;10.70;99.90;;;;;;20768469;28;20520;-45
2022/01/02 20:29:41;;;;;;;1.92;0.30;;;10.80;99.90;;;;;;20777891;28;20048;-46
2022/01/02 20:39:42;;;;;;;3.50;0.40;;;10.80;99.90;;;;;;20757871;28;20041;-45
2022/01/02 20:49:43;;;;;;;3.05;0.57;;;10.90;99.90;;;;;;20774768;28;20041;-46
2022/01/02 20:59:45;;;;;;;2.25;0.93;;;10.80;99.90;;;;;;20765770;28;20034;-45
2022/01/02 21:09:46;;;;;;;2.63;0.60;;;10.90;99.90;;;;;;20765202;28;20042;-45
2022/01/02 21:19:47;;;;;;;3.63;0.50;;;10.80;99.90;;;;;;20769826;28;20401;-45
2022/01/02 21:29:48;;;;;;;5.40;0.93;;;10.80;99.90;;;;;;20776943;28;20408;-45
2022/01/02 21:39:50;;;;;;;5.47;0.50;;;10.80;99.90;;;;;;20773207;28;20046;-46
2022/01/02 21:49:53;;;;;;;4.07;0.50;;;10.70;99.90;;;;;;20766320;28;20117;-46
2022/01/02 21:59:54;;;;;;;9.68;1.73;;;10.70;99.90;;;;;;20756252;28;20037;-46
2022/01/02 22:09:57;;;;;;;5.22;0.82;;;10.60;99.90;;;;;;20774260;28;20523;-46
2022/01/02 22:19:59;;;;;;;6.32;1.08;;;10.50;99.90;;;;;;20793112;28;20041;-46
2022/01/02 22:30:00;;;;;;;5.38;1.38;;;10.40;99.90;;;;;;20792907;28;20501;-46
2022/01/02 22:40:05;;;;;;;4.35;0.93;;;10.40;99.90;;;;;;20781591;28;20520;-46
2022/01/02 22:50:09;;;;;;;6.00;0.63;;;10.50;99.90;;;;;;20777312;28;20038;-46
2022/01/02 23:00:32;;;;;;;16.25;0.98;;;10.40;99.90;;;;;;20776256;28;20331;-46
2022/01/02 23:10:34;;;;;;;7.18;0.75;;;10.40;99.90;;;;;;20777072;28;20076;-46
2022/01/02 23:20:40;;;;;;;4.18;0.70;;;10.40;99.90;;;;;;20775313;28;20044;-46
2022/01/02 23:30:43;;;;;;;6.05;0.60;;;10.40;99.90;;;;;;20784075;28;20509;-46
2022/01/02 23:40:44;;;;;;;6.95;1.23;;;10.40;99.90;;;;;;20753204;28;20088;-46
2022/01/02 23:50:46;;;;;;;4.70;0.60;;;10.50;99.90;;;;;;20781271;28;20416;-46
